createdAt,value
2023-04-11T00:00:41.407Z,25.24
2023-04-11T00:01:41.522Z,25.24
2023-04-11T00:02:41.722Z,25.24
2023-04-11T00:03:41.704Z,25.34
2023-04-11T00:04:41.582Z,25.44
2023-04-11T00:05:41.415Z,25.34
2023-04-11T00:06:41.419Z,25.24
2023-04-11T00:07:41.420Z,25.34
2023-04-11T00:08:41.415Z,25.15
2023-04-11T00:09:41.420Z,25.05
2023-04-11T00:10:42.103Z,25.34
2023-04-11T00:11:41.415Z,25.63
2023-04-11T00:12:41.414Z,25.15
2023-04-11T00:13:41.418Z,25.24
2023-04-11T00:14:41.448Z,25.34
2023-04-11T00:15:41.424Z,25.44
2023-04-11T00:16:41.554Z,25.15
2023-04-11T00:17:41.483Z,25.15
2023-04-11T00:18:41.428Z,25.15
2023-04-11T00:19:41.430Z,25.24
2023-04-11T00:20:41.445Z,25.24
2023-04-11T00:21:41.434Z,25.24
2023-04-11T00:22:41.432Z,25.24
2023-04-11T00:23:41.447Z,25.15
2023-04-11T00:24:41.439Z,25.63
2023-04-11T00:25:41.447Z,25.15
2023-04-11T00:26:41.441Z,25.34
2023-04-11T00:27:41.443Z,25.15
2023-04-11T00:28:41.442Z,25.44
2023-04-11T00:29:41.482Z,25.15
2023-04-11T00:30:41.481Z,25.05
2023-04-11T00:31:41.466Z,25.24
2023-04-11T00:32:41.473Z,25.24
2023-04-11T00:33:41.450Z,25.15
2023-04-11T00:34:41.454Z,25.34
2023-04-11T00:35:41.478Z,25.24
2023-04-11T00:36:41.522Z,25.34
2023-04-11T00:37:41.457Z,25.24
2023-04-11T00:38:41.456Z,25.15
2023-04-11T00:39:41.467Z,25.24
2023-04-11T00:40:41.459Z,25.34
2023-04-11T00:41:41.465Z,25.05
2023-04-11T00:42:41.464Z,25.24
2023-04-11T00:43:41.464Z,25.34
2023-04-11T00:44:41.465Z,25.44
2023-04-11T00:45:41.498Z,24.96
2023-04-11T00:46:41.498Z,25.34
2023-04-11T00:47:41.530Z,25.24
2023-04-11T00:48:41.475Z,25.05
2023-04-11T00:49:41.473Z,25.34
2023-04-11T00:50:41.478Z,25.44
2023-04-11T00:51:41.493Z,25.34
2023-04-11T00:52:41.478Z,25.34
2023-04-11T00:53:41.481Z,25.05
2023-04-11T00:54:41.488Z,25.05
2023-04-11T00:55:41.496Z,25.34
2023-04-11T00:56:41.485Z,25.44
2023-04-11T00:57:41.485Z,25.05
2023-04-11T00:58:41.499Z,25.15
2023-04-11T00:59:41.494Z,25.15
2023-04-11T01:00:41.521Z,25.15
2023-04-11T01:01:41.569Z,25.34
2023-04-11T01:02:41.652Z,25.24
2023-04-11T01:03:41.590Z,25.24
2023-04-11T01:04:41.508Z,25.34
2023-04-11T01:05:41.508Z,25.15
2023-04-11T01:06:41.505Z,25.34
2023-04-11T01:07:41.507Z,25.15
2023-04-11T01:08:41.510Z,25.34
2023-04-11T01:09:41.509Z,25.05
2023-04-11T01:10:41.511Z,25.24
2023-04-11T01:11:41.520Z,25.05
2023-04-11T01:12:41.524Z,25.05
2023-04-11T01:13:41.528Z,24.96
2023-04-11T01:14:41.525Z,25.34
2023-04-11T01:15:41.521Z,24.96
2023-04-11T01:16:41.579Z,25.15
2023-04-11T01:17:41.583Z,24.96
2023-04-11T01:18:41.561Z,25.15
2023-04-11T01:19:41.536Z,24.96
2023-04-11T01:20:41.527Z,25.15
2023-04-11T01:21:41.531Z,25.05
2023-04-11T01:22:41.534Z,25.34
2023-04-11T01:23:41.538Z,25.24
2023-04-11T01:24:41.534Z,25.15
2023-04-11T01:25:41.551Z,25.05
2023-04-11T01:26:41.541Z,25.15
2023-04-11T01:27:41.542Z,25.05
2023-04-11T01:28:41.556Z,25.34
2023-04-11T01:29:41.544Z,25.24
2023-04-11T01:30:41.585Z,25.15
2023-04-11T01:31:41.551Z,24.86
2023-04-11T01:32:41.570Z,25.24
2023-04-11T01:33:41.553Z,25.24
2023-04-11T01:34:41.577Z,25.15
2023-04-11T01:35:41.573Z,24.76
2023-04-11T01:36:41.555Z,25.15
2023-04-11T01:37:41.611Z,24.96
2023-04-11T01:38:41.558Z,25.24
2023-04-11T01:39:41.560Z,25.34
2023-04-11T01:40:41.577Z,24.86
2023-04-11T01:41:41.560Z,24.86
2023-04-11T01:42:41.566Z,25.15
2023-04-11T01:43:41.562Z,24.86
2023-04-11T01:44:41.566Z,25.15
2023-04-11T01:45:41.575Z,25.24
2023-04-11T01:46:41.570Z,25.34
2023-04-11T01:47:41.657Z,25.24
2023-04-11T01:48:41.623Z,25.15
2023-04-11T01:49:41.579Z,25.34
2023-04-11T01:50:41.599Z,25.24
2023-04-11T01:51:41.586Z,24.96
2023-04-11T01:52:41.579Z,25.24
2023-04-11T01:53:41.580Z,25.24
2023-04-11T01:54:41.579Z,25.24
2023-04-11T01:55:41.579Z,25.24
2023-04-11T01:56:41.580Z,25.34
2023-04-11T01:57:41.581Z,25.34
2023-04-11T01:58:41.589Z,25.34
2023-04-11T01:59:41.596Z,24.67
2023-04-11T02:00:41.597Z,24.96
2023-04-11T02:01:41.736Z,25.15
2023-04-11T02:02:41.728Z,24.76
2023-04-11T02:03:41.691Z,24.96
2023-04-11T02:04:41.599Z,25.15
2023-04-11T02:05:41.596Z,25.15
2023-04-11T02:06:41.620Z,25.05
2023-04-11T02:07:41.604Z,25.15
2023-04-11T02:08:41.593Z,25.24
2023-04-11T02:09:41.606Z,25.15
2023-04-11T02:10:41.605Z,24.86
2023-04-11T02:11:41.615Z,25.15
2023-04-11T02:12:41.608Z,25.15
2023-04-11T02:13:41.606Z,25.15
2023-04-11T02:14:41.607Z,25.05
2023-04-11T02:15:41.645Z,25.24
2023-04-11T02:16:41.612Z,25.24
2023-04-11T02:17:41.631Z,25.05
2023-04-11T02:18:41.617Z,25.24
2023-04-11T02:19:41.619Z,24.76
2023-04-11T02:20:41.620Z,25.15
2023-04-11T02:21:41.629Z,25.24
2023-04-11T02:22:41.656Z,25.05
2023-04-11T02:23:41.629Z,25.15
2023-04-11T02:24:41.621Z,25.05
2023-04-11T02:25:41.631Z,24.96
2023-04-11T02:26:41.629Z,24.96
2023-04-11T02:27:41.633Z,24.96
2023-04-11T02:28:41.638Z,25.05
2023-04-11T02:29:41.649Z,25.15
2023-04-11T02:30:41.731Z,25.15
2023-04-11T02:31:41.695Z,25.24
2023-04-11T02:32:41.659Z,25.15
2023-04-11T02:33:41.643Z,25.24
2023-04-11T02:34:41.654Z,24.96
2023-04-11T02:35:41.720Z,25.15
2023-04-11T02:36:41.650Z,25.24
2023-04-11T02:37:41.644Z,25.15
2023-04-11T02:38:41.672Z,24.96
2023-04-11T02:39:41.659Z,24.86
2023-04-11T02:40:41.655Z,25.05
2023-04-11T02:41:41.654Z,25.15
2023-04-11T02:42:41.651Z,24.86
2023-04-11T02:43:41.667Z,24.86
2023-04-11T02:44:41.650Z,24.96
2023-04-11T02:45:41.659Z,25.15
2023-04-11T02:46:41.698Z,25.15
2023-04-11T02:47:41.697Z,25.24
2023-04-11T02:48:41.672Z,24.67
2023-04-11T02:49:41.667Z,25.24
2023-04-11T02:50:41.660Z,25.24
2023-04-11T02:51:41.675Z,25.05
2023-04-11T02:52:41.664Z,25.24
2023-04-11T02:53:41.675Z,24.86
2023-04-11T02:54:41.994Z,25.05
2023-04-11T02:55:41.682Z,25.15
2023-04-11T02:56:41.671Z,24.76
2023-04-11T02:57:41.677Z,24.76
2023-04-11T02:58:41.955Z,25.15
2023-04-11T02:59:41.845Z,25.15
2023-04-11T03:00:41.677Z,24.96
2023-04-11T03:01:41.837Z,25.13
2023-04-11T03:02:41.880Z,24.86
2023-04-11T03:03:41.768Z,25.15
2023-04-11T03:04:41.836Z,24.86
2023-04-11T03:05:41.686Z,24.86
2023-04-11T03:06:41.681Z,24.96
2023-04-11T03:07:41.693Z,24.96
2023-04-11T03:08:41.700Z,25.24
2023-04-11T03:09:41.686Z,25.15
2023-04-11T03:10:41.713Z,25.24
2023-04-11T03:11:41.697Z,25.15
2023-04-11T03:12:41.699Z,24.96
2023-04-11T03:13:41.705Z,24.67
2023-04-11T03:14:41.848Z,25.24
2023-04-11T03:15:41.791Z,25.24
2023-04-11T03:16:41.703Z,24.67
2023-04-11T03:17:41.741Z,24.67
2023-04-11T03:18:41.710Z,25.24
2023-04-11T03:19:41.712Z,24.67
2023-04-11T03:20:41.719Z,25.24
2023-04-11T03:21:41.716Z,25.34
2023-04-11T03:22:41.713Z,25.34
2023-04-11T03:23:41.726Z,25.24
2023-04-11T03:24:41.861Z,25.34
2023-04-11T03:25:41.708Z,25.44
2023-04-11T03:26:41.736Z,24.86
2023-04-11T03:27:41.722Z,25.24
2023-04-11T03:28:41.725Z,25.34
2023-04-11T03:29:43.528Z,24.86
2023-04-11T03:30:41.724Z,25.24
2023-04-11T03:31:41.750Z,25.05
2023-04-11T03:32:41.828Z,24.86
2023-04-11T03:33:41.722Z,25.44
2023-04-11T03:34:41.732Z,25.24
2023-04-11T03:35:41.756Z,25.34
2023-04-11T03:36:41.733Z,25.34
2023-04-11T03:37:41.827Z,25.34
2023-04-11T03:38:41.741Z,24.86
2023-04-11T03:39:41.742Z,25.34
2023-04-11T03:40:41.746Z,25.34
2023-04-11T03:41:41.751Z,25.34
2023-04-11T03:42:41.890Z,25.24
2023-04-11T03:43:41.741Z,25.34
2023-04-11T03:44:41.750Z,25.34
2023-04-11T03:45:41.845Z,25.34
2023-04-11T03:46:41.875Z,25.34
2023-04-11T03:47:41.826Z,25.44
2023-04-11T03:48:41.753Z,25.34
2023-04-11T03:49:41.753Z,25.44
2023-04-11T03:50:41.752Z,25.34
2023-04-11T03:51:41.753Z,25.44
2023-04-11T03:52:41.770Z,25.24
2023-04-11T03:53:41.754Z,25.34
2023-04-11T03:54:41.764Z,25.24
2023-04-11T03:55:41.757Z,25.34
2023-04-11T03:56:41.764Z,25.13
2023-04-11T03:57:41.759Z,25.34
2023-04-11T03:58:41.786Z,24.67
2023-04-11T03:59:41.761Z,25.34
2023-04-11T04:00:41.767Z,25.34
2023-04-11T04:01:41.834Z,24.67
2023-04-11T04:02:42.044Z,24.67
2023-04-11T04:03:42.091Z,25.34
2023-04-11T04:04:41.912Z,25.24
2023-04-11T04:05:41.774Z,25.34
2023-04-11T04:06:41.787Z,25.34
2023-04-11T04:07:41.778Z,25.15
2023-04-11T04:08:41.781Z,25.15
2023-04-11T04:09:41.776Z,25.24
2023-04-11T04:10:41.826Z,25.15
2023-04-11T04:11:41.785Z,25.34
2023-04-11T04:12:41.782Z,25.05
2023-04-11T04:13:41.782Z,25.34
2023-04-11T04:14:41.803Z,25.15
2023-04-11T04:15:41.783Z,25.15
2023-04-11T04:16:41.824Z,25.34
2023-04-11T04:17:41.983Z,25.23
2023-04-11T04:18:41.816Z,25.34
2023-04-11T04:19:41.799Z,25.24
2023-04-11T04:20:41.795Z,25.34
2023-04-11T04:21:41.794Z,25.24
2023-04-11T04:22:41.801Z,25.34
2023-04-11T04:23:41.794Z,25.24
2023-04-11T04:24:41.808Z,25.24
2023-04-11T04:25:41.819Z,25.24
2023-04-11T04:26:41.799Z,25.34
2023-04-11T04:27:41.812Z,25.34
2023-04-11T04:28:41.804Z,25.24
2023-04-11T04:29:41.803Z,25.15
2023-04-11T04:30:41.827Z,25.44
2023-04-11T04:31:41.842Z,25.82
2023-04-11T04:32:41.828Z,25.44
2023-04-11T04:33:41.815Z,25.44
2023-04-11T04:34:41.822Z,25.44
2023-04-11T04:35:41.842Z,25.24
2023-04-11T04:36:41.812Z,25.34
2023-04-11T04:37:41.813Z,24.96
2023-04-11T04:38:41.817Z,24.96
2023-04-11T04:39:41.830Z,25.05
2023-04-11T04:40:41.820Z,25.34
2023-04-11T04:41:41.834Z,25.15
2023-04-11T04:42:41.821Z,25.34
2023-04-11T04:43:41.824Z,25.44
2023-04-11T04:44:41.837Z,25.54
2023-04-11T04:45:42.118Z,25.73
2023-04-11T04:46:41.850Z,25.82
2023-04-11T04:47:41.829Z,26.40
2023-04-11T04:48:41.836Z,25.82
2023-04-11T04:49:41.835Z,26.11
2023-04-11T04:50:41.938Z,26.31
2023-04-11T04:51:41.847Z,26.11
2023-04-11T04:52:41.833Z,26.21
2023-04-11T04:53:41.842Z,26.11
2023-04-11T04:54:41.855Z,26.31
2023-04-11T04:55:41.847Z,26.21
2023-04-11T04:56:41.840Z,26.31
2023-04-11T04:57:41.837Z,26.40
2023-04-11T04:58:41.850Z,26.31
2023-04-11T04:59:41.845Z,26.21
2023-04-11T05:00:41.850Z,26.21
2023-04-11T05:01:41.956Z,26.40
2023-04-11T05:02:41.958Z,26.59
2023-04-11T05:03:41.957Z,26.50
2023-04-11T05:04:41.854Z,26.59
2023-04-11T05:05:41.855Z,26.90
2023-04-11T05:06:41.865Z,26.69
2023-04-11T05:07:41.851Z,26.69
2023-04-11T05:08:41.862Z,26.79
2023-04-11T05:09:41.857Z,26.98
2023-04-11T05:10:41.864Z,27.17
2023-04-11T05:11:41.869Z,26.89
2023-04-11T05:12:41.858Z,27.08
2023-04-11T05:13:41.868Z,26.98
2023-04-11T05:14:41.869Z,26.98
2023-04-11T05:15:41.870Z,27.37
2023-04-11T05:16:41.915Z,26.79
2023-04-11T05:17:41.918Z,27.08
2023-04-11T05:18:41.919Z,26.89
2023-04-11T05:19:41.871Z,27.08
2023-04-11T05:20:42.130Z,26.70
2023-04-11T05:21:41.875Z,26.79
2023-04-11T05:22:41.877Z,26.70
2023-04-11T05:23:41.885Z,26.79
2023-04-11T05:24:41.881Z,27.00
2023-04-11T05:25:41.882Z,26.89
2023-04-11T05:26:41.886Z,26.89
2023-04-11T05:27:41.880Z,26.79
2023-04-11T05:28:41.885Z,26.59
2023-04-11T05:29:41.882Z,26.79
2023-04-11T05:30:41.907Z,26.79
2023-04-11T05:31:41.886Z,26.69
2023-04-11T05:32:41.918Z,26.61
2023-04-11T05:33:41.890Z,26.79
2023-04-11T05:34:41.923Z,26.69
2023-04-11T05:35:42.000Z,26.90
2023-04-11T05:36:41.896Z,26.80
2023-04-11T05:37:41.899Z,26.59
2023-04-11T05:38:41.910Z,26.69
2023-04-11T05:39:41.902Z,26.61
2023-04-11T05:40:41.911Z,26.59
2023-04-11T05:41:41.952Z,26.40
2023-04-11T05:42:41.909Z,26.50
2023-04-11T05:43:41.909Z,26.69
2023-04-11T05:44:41.909Z,26.40
2023-04-11T05:45:42.010Z,26.50
2023-04-11T05:46:41.918Z,26.40
2023-04-11T05:47:41.993Z,26.50
2023-04-11T05:48:41.926Z,26.59
2023-04-11T05:49:41.922Z,26.50
2023-04-11T05:50:41.949Z,26.51
2023-04-11T05:51:41.919Z,26.40
2023-04-11T05:52:41.921Z,26.61
2023-04-11T05:53:41.922Z,26.51
2023-04-11T05:54:41.918Z,26.59
2023-04-11T05:55:41.932Z,26.59
2023-04-11T05:56:41.925Z,26.59
2023-04-11T05:57:41.922Z,26.51
2023-04-11T05:58:41.931Z,26.51
2023-04-11T05:59:41.933Z,26.61
2023-04-11T06:00:41.930Z,26.51
2023-04-11T06:01:41.945Z,26.61
2023-04-11T06:02:42.066Z,26.69
2023-04-11T06:03:41.985Z,26.70
2023-04-11T06:04:42.093Z,26.42
2023-04-11T06:05:41.950Z,26.51
2023-04-11T06:06:41.985Z,26.40
2023-04-11T06:07:41.939Z,26.80
2023-04-11T06:08:41.950Z,26.80
2023-04-11T06:09:41.938Z,26.59
2023-04-11T06:10:41.952Z,26.59
2023-04-11T06:11:41.950Z,26.51
2023-04-11T06:12:41.949Z,26.59
2023-04-11T06:13:41.944Z,26.59
2023-04-11T06:14:41.955Z,26.40
2023-04-11T06:15:42.016Z,26.59
2023-04-11T06:16:41.951Z,26.42
2023-04-11T06:17:41.985Z,26.32
2023-04-11T06:18:41.956Z,26.31
2023-04-11T06:19:41.964Z,26.50
2023-04-11T06:20:41.960Z,26.42
2023-04-11T06:21:41.959Z,26.51
2023-04-11T06:22:42.098Z,26.42
2023-04-11T06:23:41.981Z,26.31
2023-04-11T06:24:41.964Z,26.32
2023-04-11T06:25:41.987Z,26.32
2023-04-11T06:26:41.967Z,26.51
2023-04-11T06:27:41.974Z,26.51
2023-04-11T06:28:41.966Z,26.61
2023-04-11T06:29:41.973Z,26.51
2023-04-11T06:30:42.028Z,26.42
2023-04-11T06:31:42.048Z,26.42
2023-04-11T06:32:42.024Z,26.40
2023-04-11T06:33:41.982Z,26.51
2023-04-11T06:34:41.992Z,26.90
2023-04-11T06:35:41.997Z,26.80
2023-04-11T06:36:41.981Z,26.70
2023-04-11T06:37:41.986Z,27.00
2023-04-11T06:38:42.062Z,27.09
2023-04-11T06:39:41.990Z,27.19
2023-04-11T06:40:41.998Z,27.09
2023-04-11T06:41:41.998Z,27.19
2023-04-11T06:42:41.996Z,27.19
2023-04-11T06:43:42.010Z,27.48
2023-04-11T06:44:42.068Z,27.38
2023-04-11T06:45:41.996Z,27.57
2023-04-11T06:46:42.028Z,27.57
2023-04-11T06:47:42.021Z,27.48
2023-04-11T06:48:42.012Z,27.48
2023-04-11T06:49:42.007Z,27.76
2023-04-11T06:50:42.009Z,27.86
2023-04-11T06:51:42.006Z,27.86
2023-04-11T06:52:42.030Z,27.86
2023-04-11T06:53:42.013Z,27.86
2023-04-11T06:54:42.045Z,27.76
2023-04-11T06:55:42.024Z,27.57
2023-04-11T06:56:42.025Z,27.48
2023-04-11T06:57:42.021Z,27.48
2023-04-11T06:58:42.032Z,27.57
2023-04-11T06:59:42.046Z,27.48
2023-04-11T07:00:42.019Z,27.57
2023-04-11T07:01:42.170Z,27.38
2023-04-11T07:02:42.217Z,27.48
2023-04-11T07:03:42.228Z,27.57
2023-04-11T07:04:42.089Z,27.48
2023-04-11T07:05:42.050Z,27.48
2023-04-11T07:06:42.039Z,27.38
2023-04-11T07:07:42.035Z,27.38
2023-04-11T07:08:42.037Z,27.57
2023-04-11T07:09:42.037Z,27.48
2023-04-11T07:10:42.064Z,27.48
2023-04-11T07:11:42.055Z,27.38
2023-04-11T07:12:42.042Z,27.48
2023-04-11T07:13:42.077Z,27.48
2023-04-11T07:14:42.043Z,27.38
2023-04-11T07:15:42.038Z,27.38
2023-04-11T07:16:42.086Z,27.76
2023-04-11T07:17:42.138Z,27.76
2023-04-11T07:18:42.067Z,27.57
2023-04-11T07:19:42.059Z,27.38
2023-04-11T07:20:42.054Z,27.57
2023-04-11T07:21:42.061Z,27.48
2023-04-11T07:22:42.052Z,27.57
2023-04-11T07:23:42.058Z,27.57
2023-04-11T07:24:42.063Z,27.48
2023-04-11T07:25:42.064Z,27.48
2023-04-11T07:26:42.390Z,27.67
2023-04-11T07:27:42.069Z,27.67
2023-04-11T07:28:42.071Z,27.57
2023-04-11T07:29:42.070Z,27.57
2023-04-11T07:30:42.076Z,27.57
2023-04-11T07:31:42.152Z,27.48
2023-04-11T07:32:42.136Z,27.48
2023-04-11T07:33:42.087Z,27.48
2023-04-11T07:34:42.114Z,27.48
2023-04-11T07:35:42.109Z,27.38
2023-04-11T07:36:42.081Z,27.38
2023-04-11T07:37:42.089Z,27.48
2023-04-11T07:38:42.082Z,27.48
2023-04-11T07:39:42.093Z,27.48
2023-04-11T07:40:42.285Z,27.48
2023-04-11T07:41:42.090Z,27.48
2023-04-11T07:42:42.103Z,27.57
2023-04-11T07:43:42.095Z,27.48
2023-04-11T07:44:42.121Z,27.38
2023-04-11T07:45:42.129Z,27.19
2023-04-11T07:46:42.163Z,27.28
2023-04-11T07:47:42.139Z,27.09
2023-04-11T07:48:42.100Z,27.19
2023-04-11T07:49:42.110Z,26.80
2023-04-11T07:50:42.106Z,27.19
2023-04-11T07:51:42.122Z,27.00
2023-04-11T07:52:42.119Z,27.00
2023-04-11T07:53:42.104Z,27.20
2023-04-11T07:54:42.107Z,27.38
2023-04-11T07:55:42.112Z,27.20
2023-04-11T07:56:42.103Z,27.59
2023-04-11T07:57:42.142Z,27.67
2023-04-11T07:58:42.136Z,27.59
2023-04-11T07:59:42.124Z,27.38
2023-04-11T08:00:42.110Z,27.48
2023-04-11T08:01:42.373Z,27.67
2023-04-11T08:02:42.294Z,27.59
2023-04-11T08:03:42.196Z,27.38
2023-04-11T08:04:42.323Z,27.76
2023-04-11T08:05:42.120Z,27.67
2023-04-11T08:06:42.128Z,27.59
2023-04-11T08:07:42.145Z,27.57
2023-04-11T08:08:42.130Z,27.67
2023-04-11T08:09:42.135Z,27.48
2023-04-11T08:10:42.149Z,27.48
2023-04-11T08:11:42.142Z,27.67
2023-04-11T08:12:42.153Z,27.48
2023-04-11T08:13:42.142Z,27.48
2023-04-11T08:14:42.185Z,27.48
2023-04-11T08:15:42.151Z,27.48
2023-04-11T08:16:42.168Z,27.96
2023-04-11T08:17:42.186Z,28.15
2023-04-11T08:18:42.537Z,28.34
2023-04-11T08:19:42.160Z,28.44
2023-04-11T08:20:42.177Z,28.44
2023-04-11T08:21:42.159Z,28.34
2023-04-11T08:22:42.166Z,28.44
2023-04-11T08:23:42.473Z,28.44
2023-04-11T08:24:42.157Z,28.53
2023-04-11T08:25:42.166Z,28.53
2023-04-11T08:26:42.168Z,28.44
2023-04-11T08:27:42.180Z,28.53
2023-04-11T08:28:43.386Z,28.92
2023-04-11T08:29:42.173Z,28.83
2023-04-11T08:30:42.240Z,28.63
2023-04-11T08:31:42.181Z,29.02
2023-04-11T08:32:42.265Z,29.11
2023-04-11T08:33:42.187Z,29.11
2023-04-11T08:34:42.183Z,29.31
2023-04-11T08:35:42.215Z,29.52
2023-04-11T08:36:42.201Z,29.52
2023-04-11T08:37:42.184Z,29.21
2023-04-11T08:38:42.188Z,29.41
2023-04-11T08:39:42.191Z,29.41
2023-04-11T08:40:42.215Z,29.41
2023-04-11T08:41:42.194Z,29.41
2023-04-11T08:42:42.195Z,29.52
2023-04-11T08:43:42.197Z,29.22
2023-04-11T08:44:42.194Z,29.11
2023-04-11T08:45:42.233Z,29.41
2023-04-11T08:46:42.221Z,29.52
2023-04-11T08:47:45.262Z,29.52
2023-04-11T08:48:42.202Z,29.42
2023-04-11T08:49:42.208Z,29.22
2023-04-11T08:50:42.212Z,29.22
2023-04-11T08:51:42.215Z,29.22
2023-04-11T08:52:44.581Z,29.32
2023-04-11T08:53:42.265Z,29.32
2023-04-11T08:54:42.218Z,28.94
2023-04-11T08:55:42.218Z,28.94
2023-04-11T08:56:42.237Z,29.22
2023-04-11T08:57:42.298Z,29.42
2023-04-11T08:58:43.609Z,29.13
2023-04-11T08:59:42.225Z,28.64
2023-04-11T09:00:42.238Z,28.55
2023-04-11T09:01:42.333Z,28.74
2023-04-11T09:02:42.336Z,28.94
2023-04-11T09:03:42.270Z,29.42
2023-04-11T09:04:42.303Z,29.52
2023-04-11T09:05:42.231Z,29.32
2023-04-11T09:06:42.238Z,29.13
2023-04-11T09:07:42.235Z,28.94
2023-04-11T09:08:42.261Z,28.94
2023-04-11T09:09:42.248Z,28.74
2023-04-11T09:10:42.257Z,28.84
2023-04-11T09:11:42.371Z,28.84
2023-04-11T09:12:42.251Z,29.32
2023-04-11T09:13:42.251Z,29.42
2023-04-11T09:14:42.289Z,29.22
2023-04-11T09:15:42.350Z,29.42
2023-04-11T09:16:42.265Z,28.94
2023-04-11T09:17:42.349Z,29.22
2023-04-11T09:18:42.301Z,29.03
2023-04-11T09:19:42.268Z,29.22
2023-04-11T09:20:42.261Z,28.94
2023-04-11T09:21:42.270Z,29.42
2023-04-11T09:22:43.200Z,29.22
2023-04-11T09:23:42.329Z,29.22
2023-04-11T09:24:42.270Z,28.94
2023-04-11T09:25:42.278Z,28.84
2023-04-11T09:26:42.278Z,28.66
2023-04-11T09:27:42.283Z,28.47
2023-04-11T09:28:42.435Z,28.37
2023-04-11T09:29:42.289Z,28.45
2023-04-11T09:30:42.288Z,28.45
2023-04-11T09:31:42.416Z,28.45
2023-04-11T09:32:42.326Z,28.64
2023-04-11T09:33:42.299Z,28.64
2023-04-11T09:34:42.777Z,28.74
2023-04-11T09:35:42.337Z,28.55
2023-04-11T09:36:42.312Z,28.64
2023-04-11T09:37:42.305Z,28.84
2023-04-11T09:38:42.306Z,28.84
2023-04-11T09:39:42.315Z,28.84
2023-04-11T09:40:42.318Z,28.84
2023-04-11T09:41:42.326Z,29.13
2023-04-11T09:42:42.320Z,28.55
2023-04-11T09:43:42.423Z,28.84
2023-04-11T09:44:42.321Z,29.52
2023-04-11T09:45:53.671Z,29.13
2023-04-11T09:46:42.383Z,29.61
2023-04-11T09:47:44.578Z,29.22
2023-04-11T09:48:46.891Z,29.71
2023-04-11T09:49:42.335Z,30.19
2023-04-11T09:50:42.373Z,30.19
2023-04-11T09:51:42.341Z,29.53
2023-04-11T09:52:42.337Z,29.53
2023-04-11T09:53:42.352Z,30.40
2023-04-11T09:54:42.341Z,29.24
2023-04-11T09:55:42.350Z,29.52
2023-04-11T09:56:42.348Z,29.32
2023-04-11T09:57:42.350Z,30.21
2023-04-11T09:58:42.357Z,29.24
2023-04-11T09:59:42.360Z,30.30
2023-04-11T10:00:42.358Z,30.10
2023-04-11T10:01:42.508Z,30.87
2023-04-11T10:02:42.469Z,33.86
2023-04-11T10:03:42.386Z,32.03
2023-04-11T10:04:42.410Z,31.35
2023-04-11T10:05:42.374Z,31.15
2023-04-11T10:06:42.413Z,30.87
2023-04-11T10:07:42.396Z,30.29
2023-04-11T10:08:42.385Z,30.67
2023-04-11T10:09:42.368Z,31.25
2023-04-11T10:10:42.390Z,30.58
2023-04-11T10:11:42.378Z,31.15
2023-04-11T10:12:42.386Z,31.35
2023-04-11T10:13:42.687Z,30.87
2023-04-11T10:14:42.388Z,30.67
2023-04-11T10:15:42.392Z,30.29
2023-04-11T10:16:42.488Z,31.45
2023-04-11T10:17:42.425Z,31.35
2023-04-11T10:18:42.392Z,31.63
2023-04-11T10:19:42.406Z,31.35
2023-04-11T10:20:42.399Z,30.69
2023-04-11T10:21:42.503Z,31.25
2023-04-11T10:22:42.431Z,31.15
2023-04-11T10:23:42.407Z,31.35
2023-04-11T10:24:42.414Z,30.77
2023-04-11T10:25:42.410Z,30.77
2023-04-11T10:26:42.417Z,31.35
2023-04-11T10:27:42.410Z,31.45
2023-04-11T10:28:42.427Z,30.38
2023-04-11T10:29:42.432Z,31.54
2023-04-11T10:30:42.428Z,30.67
2023-04-11T10:31:42.468Z,30.77
2023-04-11T10:32:42.455Z,31.63
2023-04-11T10:33:42.436Z,31.25
2023-04-11T10:34:42.448Z,31.25
2023-04-11T10:35:42.461Z,31.35
2023-04-11T10:36:42.438Z,31.54
2023-04-11T10:37:42.446Z,31.25
2023-04-11T10:38:42.473Z,31.25
2023-04-11T10:39:42.450Z,31.73
2023-04-11T10:40:42.444Z,31.35
2023-04-11T10:41:42.451Z,31.15
2023-04-11T10:42:42.452Z,31.35
2023-04-11T10:43:42.448Z,30.10
2023-04-11T10:44:42.457Z,30.96
2023-04-11T10:45:42.461Z,30.38
2023-04-11T10:46:42.484Z,30.96
2023-04-11T10:47:42.500Z,31.45
2023-04-11T10:48:42.466Z,30.67
2023-04-11T10:49:42.469Z,30.87
2023-04-11T10:50:42.472Z,30.96
2023-04-11T10:51:42.478Z,30.87
2023-04-11T10:52:42.478Z,30.48
2023-04-11T10:53:42.477Z,30.77
2023-04-11T10:54:42.504Z,31.45
2023-04-11T10:55:42.491Z,31.46
2023-04-11T10:56:42.484Z,30.96
2023-04-11T10:57:42.487Z,31.07
2023-04-11T10:58:42.484Z,31.15
2023-04-11T10:59:42.484Z,30.10
2023-04-11T11:00:42.535Z,30.40
2023-04-11T11:02:43.071Z,30.38
2023-04-11T11:03:42.595Z,30.30
2023-04-11T11:04:42.622Z,30.48
2023-04-11T11:05:42.502Z,30.49
2023-04-11T11:06:47.447Z,30.01
2023-04-11T11:07:42.520Z,30.21
2023-04-11T11:08:42.506Z,30.11
2023-04-11T11:09:42.514Z,30.30
2023-04-11T11:10:42.532Z,30.21
2023-04-11T11:11:42.530Z,30.30
2023-04-11T11:12:42.511Z,30.30
2023-04-11T11:13:42.527Z,30.21
2023-04-11T11:14:42.527Z,30.11
2023-04-11T11:15:42.524Z,30.11
2023-04-11T11:16:43.388Z,29.91
2023-04-11T11:17:42.624Z,30.01
2023-04-11T11:18:42.582Z,30.21
2023-04-11T11:19:42.532Z,30.30
2023-04-11T11:20:42.541Z,30.21
2023-04-11T11:21:42.544Z,30.30
2023-04-11T11:22:42.547Z,30.11
2023-04-11T11:23:42.547Z,30.21
2023-04-11T11:24:42.548Z,30.21
2023-04-11T11:25:42.552Z,30.11
2023-04-11T11:26:42.584Z,30.11
2023-04-11T11:27:42.553Z,30.11
2023-04-11T11:28:42.554Z,30.21
2023-04-11T11:29:42.566Z,30.30
2023-04-11T11:30:42.568Z,30.40
2023-04-11T11:31:42.691Z,30.21
2023-04-11T11:32:42.592Z,30.11
2023-04-11T11:33:42.585Z,29.82
2023-04-11T11:34:42.567Z,30.30
2023-04-11T11:35:42.571Z,29.91
2023-04-11T11:36:42.593Z,30.30
2023-04-11T11:37:42.577Z,30.11
2023-04-11T11:38:42.582Z,30.01
2023-04-11T11:39:42.587Z,30.40
2023-04-11T11:40:42.590Z,30.30
2023-04-11T11:41:42.589Z,30.30
2023-04-11T11:42:42.627Z,29.91
2023-04-11T11:43:42.627Z,29.72
2023-04-11T11:44:42.589Z,30.40
2023-04-11T11:45:42.621Z,29.91
2023-04-11T11:46:42.615Z,29.34
2023-04-11T11:47:42.650Z,29.63
2023-04-11T11:48:42.755Z,29.63
2023-04-11T11:49:42.633Z,29.34
2023-04-11T11:50:42.609Z,29.53
2023-04-11T11:51:42.610Z,29.43
2023-04-11T11:52:42.610Z,29.24
2023-04-11T11:53:42.679Z,29.24
2023-04-11T11:54:42.625Z,29.43
2023-04-11T11:55:42.621Z,29.05
2023-04-11T11:56:42.623Z,29.24
2023-04-11T11:57:42.630Z,29.34
2023-04-11T11:58:42.658Z,29.24
2023-04-11T11:59:42.634Z,29.24
2023-04-11T12:00:42.639Z,29.34
2023-04-11T12:01:42.687Z,28.85
2023-04-11T12:02:43.149Z,29.43
2023-04-11T12:03:42.885Z,28.95
2023-04-11T12:04:42.948Z,29.14
2023-04-11T12:05:42.664Z,29.14
2023-04-11T12:06:42.670Z,29.14
2023-04-11T12:07:42.668Z,29.24
2023-04-11T12:08:42.661Z,29.14
2023-04-11T12:09:42.659Z,29.14
2023-04-11T12:10:42.673Z,28.95
2023-04-11T12:11:42.674Z,28.95
2023-04-11T12:12:42.679Z,28.95
2023-04-11T12:13:42.982Z,28.77
2023-04-11T12:14:42.764Z,28.56
2023-04-11T12:15:42.730Z,28.66
2023-04-11T12:16:42.713Z,28.66
2023-04-11T12:17:42.697Z,28.47
2023-04-11T12:18:42.684Z,28.66
2023-04-11T12:19:42.700Z,27.50
2023-04-11T12:20:42.719Z,25.64
2023-04-11T12:21:42.686Z,25.63
2023-04-11T12:22:42.704Z,26.68
2023-04-11T12:23:42.696Z,27.17
2023-04-11T12:24:42.700Z,27.46
2023-04-11T12:25:42.710Z,28.25
2023-04-11T12:26:57.411Z,28.15
2023-04-11T12:27:42.724Z,27.97
2023-04-11T12:28:42.714Z,28.16
2023-04-11T12:29:42.715Z,28.28
2023-04-11T12:30:42.781Z,28.28
2023-04-11T12:31:44.512Z,28.08
2023-04-11T12:32:42.786Z,27.89
2023-04-11T12:33:42.769Z,27.98
2023-04-11T12:34:42.726Z,26.81
2023-04-11T12:35:42.732Z,25.74
2023-04-11T12:36:42.742Z,25.92
2023-04-11T12:37:42.732Z,26.89
2023-04-11T12:38:42.747Z,28.05
2023-04-11T12:39:42.742Z,28.07
2023-04-11T12:40:42.742Z,27.87
2023-04-11T12:41:42.736Z,27.97
2023-04-11T12:42:55.108Z,27.89
2023-04-11T12:43:43.043Z,27.80
2023-04-11T12:44:42.752Z,27.70
2023-04-11T12:45:42.779Z,27.80
2023-04-11T12:46:42.856Z,27.60
2023-04-11T12:47:42.820Z,27.70
2023-04-11T12:48:42.763Z,27.70
2023-04-11T12:49:42.766Z,27.70
2023-04-11T12:50:42.789Z,27.50
2023-04-11T12:51:42.762Z,27.60
2023-04-11T12:52:42.788Z,27.50
2023-04-11T12:53:42.780Z,27.50